createdAt,value
2022-11-12T00:01:24.323Z,7.97
2022-11-12T00:03:52.628Z,8.10
2022-11-12T00:06:20.920Z,6.60
2022-11-12T00:08:50.572Z,5.83
2022-11-12T00:11:18.826Z,6.10
2022-11-12T00:13:47.069Z,5.57
2022-11-12T00:16:15.506Z,6.23
2022-11-12T00:18:43.812Z,5.47
2022-11-12T00:21:12.054Z,5.47
2022-11-12T00:23:40.342Z,4.97
2022-11-12T00:26:09.919Z,5.47
2022-11-12T00:28:38.655Z,4.87
2022-11-12T00:31:12.515Z,5.83
2022-11-12T00:33:42.716Z,4.93
2022-11-12T00:36:11.464Z,4.77
2022-11-12T00:38:39.813Z,4.97
2022-11-12T00:41:09.716Z,4.33
2022-11-12T00:43:38.014Z,4.53
2022-11-12T00:46:06.423Z,4.10
2022-11-12T00:48:34.674Z,4.70
2022-11-12T00:51:05.210Z,4.17
2022-11-12T00:53:34.071Z,3.70
2022-11-12T00:56:04.597Z,4.43
2022-11-12T00:58:36.166Z,3.67
2022-11-12T01:01:10.126Z,4.10
2022-11-12T01:03:39.758Z,4.20
2022-11-12T01:06:10.448Z,4.60
2022-11-12T01:08:39.152Z,4.57
2022-11-12T01:11:10.552Z,4.10
2022-11-12T01:13:44.508Z,4.20
2022-11-12T01:16:16.372Z,4.77
2022-11-12T01:18:45.263Z,3.83
2022-11-12T01:21:14.848Z,4.50
2022-11-12T01:23:43.861Z,4.33
2022-11-12T01:26:15.516Z,4.00
2022-11-12T01:28:45.610Z,4.90
2022-11-12T01:31:16.681Z,4.80
2022-11-12T01:33:48.462Z,4.73
2022-11-12T01:36:18.663Z,5.70
2022-11-12T01:38:48.529Z,6.03
2022-11-12T01:41:20.002Z,5.20
2022-11-12T01:44:05.066Z,4.63
2022-11-12T01:46:34.134Z,4.43
2022-11-12T01:49:06.746Z,4.57
2022-11-12T01:51:41.779Z,4.80
2022-11-12T01:54:14.621Z,5.20
2022-11-12T01:56:43.364Z,5.10
2022-11-12T01:59:17.333Z,4.63
2022-11-12T02:01:45.589Z,4.67
2022-11-12T02:04:13.964Z,4.07
2022-11-12T02:06:43.246Z,4.40
2022-11-12T02:09:11.929Z,5.07
2022-11-12T02:11:40.158Z,5.87
2022-11-12T02:14:08.012Z,5.80
2022-11-12T02:16:40.474Z,4.33
2022-11-12T02:19:12.120Z,4.53
2022-11-12T02:21:42.217Z,5.43
2022-11-12T02:24:36.901Z,6.00
2022-11-12T02:27:07.300Z,4.73
2022-11-12T02:29:35.743Z,4.97
2022-11-12T02:32:03.998Z,6.23
2022-11-12T02:34:32.258Z,6.10
2022-11-12T02:37:01.954Z,5.63
2022-11-12T02:39:30.180Z,5.90
2022-11-12T02:41:58.680Z,6.53
2022-11-12T02:44:26.989Z,4.57
2022-11-12T02:46:55.231Z,6.27
2022-11-12T02:49:23.467Z,4.07
2022-11-12T02:51:51.736Z,4.73
2022-11-12T02:54:21.367Z,5.33
2022-11-12T02:56:49.593Z,5.97
2022-11-12T02:59:17.899Z,4.93
2022-11-12T03:01:46.146Z,5.33
2022-11-12T03:04:14.443Z,5.00
2022-11-12T03:06:42.736Z,5.03
2022-11-12T03:09:12.635Z,4.60
2022-11-12T03:11:42.335Z,5.07
2022-11-12T03:14:10.610Z,5.20
2022-11-12T03:16:38.847Z,5.13
2022-11-12T03:19:07.559Z,4.10
2022-11-12T03:21:35.795Z,4.40
2022-11-12T03:24:04.156Z,5.50
2022-11-12T03:26:35.748Z,5.07
2022-11-12T03:29:06.097Z,5.63
2022-11-12T03:31:35.608Z,4.53
2022-11-12T03:34:03.872Z,4.93
2022-11-12T03:36:32.491Z,4.47
2022-11-12T03:39:00.686Z,3.83
2022-11-12T03:41:28.986Z,3.73
2022-11-12T03:43:56.090Z,4.20
2022-11-12T03:46:25.736Z,4.00
2022-11-12T03:48:54.131Z,3.77
2022-11-12T03:51:22.623Z,4.03
2022-11-12T03:53:50.876Z,3.93
2022-11-12T03:56:19.155Z,4.33
2022-11-12T03:58:47.413Z,3.60
2022-11-12T04:01:15.728Z,3.90
2022-11-12T04:03:45.356Z,3.43
2022-11-12T04:06:31.153Z,4.23
2022-11-12T04:08:59.432Z,3.67
2022-11-12T04:11:27.750Z,4.60
2022-11-12T04:13:55.986Z,3.73
2022-11-12T04:16:42.453Z,3.37
2022-11-12T04:19:31.688Z,3.43
2022-11-12T04:22:05.496Z,7.13
2022-11-12T04:24:53.831Z,5.07
2022-11-12T04:27:24.437Z,3.97
2022-11-12T04:30:11.290Z,4.33
2022-11-12T04:32:42.035Z,4.63
2022-11-12T04:35:11.769Z,4.33
2022-11-12T04:37:46.878Z,4.93
2022-11-12T04:40:34.379Z,4.57
2022-11-12T04:43:21.352Z,4.57
2022-11-12T04:45:53.284Z,4.07
2022-11-12T04:48:23.757Z,4.67
2022-11-12T04:50:58.977Z,4.80
2022-11-12T04:53:27.733Z,4.53
2022-11-12T04:55:58.387Z,4.70
2022-11-12T04:58:27.229Z,3.50
2022-11-12T05:00:55.755Z,4.03
2022-11-12T05:03:24.268Z,4.30
2022-11-12T05:05:53.944Z,3.73
2022-11-12T05:08:22.225Z,4.57
2022-11-12T05:10:50.460Z,3.37
2022-11-12T05:13:18.720Z,3.87
2022-11-12T05:15:47.035Z,6.57
2022-11-12T05:18:15.331Z,4.90
2022-11-12T05:20:43.605Z,4.27
2022-11-12T05:23:13.238Z,4.33
2022-11-12T05:25:41.481Z,3.53
2022-11-12T05:28:09.783Z,4.83
2022-11-12T05:30:38.093Z,4.50
2022-11-12T05:33:06.369Z,5.93
2022-11-12T05:35:34.679Z,5.30
2022-11-12T05:38:02.978Z,7.63
2022-11-12T05:40:32.640Z,6.63
2022-11-12T05:43:00.990Z,10.87
2022-11-12T05:45:29.272Z,9.40
2022-11-12T05:47:57.518Z,9.23
2022-11-12T05:50:28.189Z,7.07
2022-11-12T05:53:02.969Z,9.37
2022-11-12T05:55:36.870Z,6.90
2022-11-12T05:58:07.243Z,7.03
2022-11-12T06:00:38.965Z,6.47
2022-11-12T06:03:07.543Z,7.17
2022-11-12T06:05:36.827Z,7.37
2022-11-12T06:08:06.488Z,7.67
2022-11-12T06:10:36.471Z,6.83
2022-11-12T06:13:04.827Z,7.57
2022-11-12T06:15:38.962Z,6.70
2022-11-12T06:18:07.637Z,7.00
2022-11-12T06:20:36.421Z,5.43
2022-11-12T06:23:05.129Z,4.33
2022-11-12T06:25:35.217Z,6.33
2022-11-12T06:28:03.547Z,6.23
2022-11-12T06:30:31.827Z,5.60
2022-11-12T06:33:00.156Z,5.43
2022-11-12T06:35:28.468Z,6.23
2022-11-12T06:37:56.741Z,5.20
2022-11-12T06:40:25.040Z,5.00
2022-11-12T06:42:59.446Z,5.33
2022-11-12T06:45:27.735Z,4.60
2022-11-12T06:47:59.382Z,4.43
2022-11-12T06:50:27.648Z,4.07
2022-11-12T06:53:00.328Z,5.17
2022-11-12T06:55:28.611Z,3.83
2022-11-12T06:57:58.259Z,6.10
2022-11-12T07:00:26.536Z,3.90
2022-11-12T07:02:54.822Z,4.13
2022-11-12T07:05:23.127Z,4.93
2022-11-12T07:07:51.408Z,4.83
2022-11-12T07:10:19.881Z,4.47
2022-11-12T07:12:53.217Z,4.57
2022-11-12T07:15:23.231Z,5.10
2022-11-12T07:17:51.449Z,5.73
2022-11-12T07:20:19.857Z,5.97
2022-11-12T07:22:48.117Z,6.70
2022-11-12T07:25:16.581Z,4.90
2022-11-12T07:27:44.896Z,4.87
2022-11-12T07:30:14.038Z,7.20
2022-11-12T07:32:48.258Z,6.80
2022-11-12T07:35:19.200Z,6.53
2022-11-12T07:37:47.475Z,8.67
2022-11-12T07:40:16.509Z,5.03
2022-11-12T07:42:44.793Z,7.20
2022-11-12T07:45:13.012Z,5.70
2022-11-12T07:47:41.247Z,6.73
2022-11-12T07:50:11.473Z,5.80
2022-11-12T07:52:39.717Z,4.43
2022-11-12T07:55:08.978Z,4.70
2022-11-12T07:57:37.218Z,5.73
2022-11-12T08:00:07.050Z,5.13
2022-11-12T08:02:35.334Z,5.90
2022-11-12T08:05:05.272Z,4.87
2022-11-12T08:07:38.503Z,6.43
2022-11-12T08:10:08.696Z,5.63
2022-11-12T08:12:36.977Z,5.80
2022-11-12T08:15:06.334Z,7.73
2022-11-12T08:17:39.431Z,6.10
2022-11-12T08:20:09.364Z,5.23
2022-11-12T08:22:38.993Z,5.63
2022-11-12T08:25:08.578Z,6.23
2022-11-12T08:27:37.029Z,6.67
2022-11-12T08:30:06.586Z,5.47
2022-11-12T08:32:35.117Z,5.23
2022-11-12T08:35:03.530Z,5.83
2022-11-12T08:37:31.817Z,4.87
2022-11-12T08:40:01.442Z,3.77
2022-11-12T08:42:29.752Z,4.63
2022-11-12T08:44:58.041Z,8.70
2022-11-12T08:47:26.292Z,6.53
2022-11-12T08:49:54.585Z,6.53
2022-11-12T08:52:22.941Z,4.30
2022-11-12T08:54:51.233Z,5.87
2022-11-12T08:57:20.900Z,6.20
2022-11-12T08:59:49.178Z,5.00
2022-11-12T09:02:17.405Z,4.60
2022-11-12T09:04:46.100Z,4.93
2022-11-12T09:07:43.316Z,4.70
2022-11-12T09:10:02.819Z,4.60
2022-11-12T09:12:32.519Z,5.30
2022-11-12T09:15:30.652Z,5.33
2022-11-12T09:17:49.249Z,4.97
2022-11-12T09:20:17.726Z,5.33
2022-11-12T09:22:45.993Z,5.60
2022-11-12T09:25:14.271Z,6.40
2022-11-12T09:27:48.328Z,5.00
2022-11-12T09:30:17.590Z,5.87
2022-11-12T09:32:45.889Z,7.40
2022-11-12T09:35:14.238Z,5.57
2022-11-12T09:37:42.623Z,6.13
2022-11-12T09:40:19.577Z,6.40
2022-11-12T09:42:53.975Z,5.57
2022-11-12T09:45:29.871Z,6.07
2022-11-12T09:48:03.343Z,5.53
2022-11-12T09:50:35.406Z,5.07
2022-11-12T09:53:09.941Z,6.23
2022-11-12T09:55:43.370Z,5.60
2022-11-12T09:58:15.807Z,6.73
2022-11-12T10:00:54.981Z,6.80
2022-11-12T10:03:38.387Z,6.20
2022-11-12T10:06:18.152Z,6.70
2022-11-12T10:08:54.450Z,8.40
2022-11-12T10:12:02.809Z,10.30
2022-11-12T10:14:50.407Z,8.77
2022-11-12T10:17:34.839Z,9.63
2022-11-12T10:20:17.010Z,9.70
2022-11-12T10:23:06.695Z,9.30
2022-11-12T10:25:36.190Z,8.80
2022-11-12T10:28:17.008Z,7.20
2022-11-12T10:30:47.246Z,8.17
2022-11-12T10:33:16.821Z,9.43
2022-11-12T10:35:45.053Z,8.37
2022-11-12T10:38:18.735Z,8.07
2022-11-12T10:40:46.997Z,10.20
2022-11-12T10:43:26.385Z,9.13
2022-11-12T10:46:20.014Z,10.20
2022-11-12T10:48:57.119Z,10.10
2022-11-12T10:51:29.410Z,9.77
2022-11-12T10:53:57.878Z,8.90
2022-11-12T10:56:30.890Z,10.40
2022-11-12T10:59:16.868Z,9.30
2022-11-12T11:01:48.735Z,11.03
2022-11-12T11:04:24.209Z,10.30
2022-11-12T11:07:06.423Z,10.37
2022-11-12T11:09:35.753Z,10.80
2022-11-12T11:12:04.413Z,9.23
2022-11-12T11:14:38.304Z,9.87
2022-11-12T11:17:17.379Z,11.00
2022-11-12T11:19:45.825Z,9.63
2022-11-12T11:22:33.683Z,12.70
2022-11-12T11:25:22.933Z,9.10
2022-11-12T11:28:08.579Z,10.03
2022-11-12T11:30:42.609Z,10.70
2022-11-12T11:33:30.609Z,9.53
2022-11-12T11:36:12.771Z,9.70
2022-11-12T11:38:54.009Z,10.03
2022-11-12T11:41:40.268Z,10.67
2022-11-12T11:44:22.091Z,10.87
2022-11-12T11:47:00.959Z,11.97
2022-11-12T11:50:09.995Z,12.10
2022-11-12T11:52:49.734Z,9.97
2022-11-12T11:55:38.276Z,10.53
2022-11-12T11:58:24.131Z,10.07
2022-11-12T12:01:01.932Z,9.77
2022-11-12T12:03:41.550Z,11.13
2022-11-12T12:06:26.012Z,11.10
2022-11-12T12:09:08.332Z,10.87
2022-11-12T12:11:41.120Z,10.10
2022-11-12T12:14:30.516Z,12.27
2022-11-12T12:17:11.080Z,11.43
2022-11-12T12:19:53.132Z,13.50
2022-11-12T12:22:34.382Z,9.90
2022-11-12T12:25:12.052Z,9.97
2022-11-12T12:27:50.599Z,9.63
2022-11-12T12:30:22.619Z,12.17
2022-11-12T12:32:56.894Z,16.27
2022-11-12T12:35:30.835Z,13.57
2022-11-12T12:38:13.553Z,10.33
2022-11-12T12:40:49.077Z,10.50
2022-11-12T12:43:27.588Z,10.50
2022-11-12T12:45:58.457Z,8.93
2022-11-12T12:48:31.861Z,8.40
2022-11-12T12:51:00.409Z,11.30
2022-11-12T12:53:37.276Z,10.87
2022-11-12T12:56:07.258Z,10.33
2022-11-12T12:58:45.274Z,9.90
2022-11-12T13:01:31.425Z,8.77
2022-11-12T13:04:03.250Z,9.57
2022-11-12T13:06:35.822Z,8.57
2022-11-12T13:09:21.410Z,9.50
2022-11-12T13:12:13.764Z,9.50
2022-11-12T13:15:15.631Z,8.73
2022-11-12T13:17:50.417Z,7.40
2022-11-12T13:20:43.512Z,8.90
2022-11-12T13:24:00.057Z,8.57
2022-11-12T13:26:55.891Z,9.07
2022-11-12T13:29:43.407Z,8.47
2022-11-12T13:32:36.859Z,9.03
2022-11-12T13:35:32.200Z,10.33
2022-11-12T13:38:03.982Z,8.27
2022-11-12T13:40:42.850Z,9.40
2022-11-12T13:43:33.807Z,10.30
2022-11-12T13:46:26.806Z,9.83
2022-11-12T13:49:00.858Z,10.23
2022-11-12T13:51:40.297Z,10.93
2022-11-12T13:54:35.299Z,10.33
2022-11-12T13:57:31.864Z,10.53
2022-11-12T14:00:22.295Z,10.50
2022-11-12T14:02:55.722Z,10.40
2022-11-12T14:05:26.747Z,9.27
2022-11-12T14:08:28.057Z,11.10
2022-11-12T14:11:18.384Z,10.50
2022-11-12T14:14:00.482Z,11.10
2022-11-12T14:16:48.405Z,12.97
2022-11-12T14:19:38.968Z,10.50
2022-11-12T14:22:17.137Z,12.77
2022-11-12T14:24:48.178Z,12.27
2022-11-12T14:27:36.516Z,10.60
2022-11-12T14:30:18.223Z,10.50
2022-11-12T14:32:51.041Z,11.30
2022-11-12T14:35:35.990Z,10.93
2022-11-12T14:38:18.362Z,12.40
2022-11-12T14:40:51.745Z,12.20
2022-11-12T14:43:28.134Z,13.43
2022-11-12T14:45:59.449Z,11.43
2022-11-12T14:48:29.564Z,13.80
2022-11-12T14:51:03.658Z,13.43
2022-11-12T14:53:35.312Z,13.03
2022-11-12T14:56:06.094Z,13.93
2022-11-12T14:58:35.248Z,15.37
2022-11-12T15:02:08.449Z,14.10
2022-11-12T15:04:25.009Z,11.97
2022-11-12T15:06:55.352Z,12.80
2022-11-12T15:09:35.863Z,13.40
2022-11-12T15:12:06.575Z,13.73
2022-11-12T15:14:35.715Z,10.60
2022-11-12T15:17:05.963Z,12.87
2022-11-12T15:19:36.905Z,12.63
2022-11-12T15:22:06.246Z,12.90
2022-11-12T15:24:35.936Z,12.27
2022-11-12T15:27:36.083Z,13.77
2022-11-12T15:30:18.555Z,12.97
2022-11-12T15:32:47.185Z,12.57
2022-11-12T15:35:38.053Z,13.63
2022-11-12T15:38:13.942Z,14.33
2022-11-12T15:40:45.705Z,11.50
2022-11-12T15:43:18.017Z,11.90
2022-11-12T15:45:50.461Z,13.50
2022-11-12T15:48:19.199Z,13.43
2022-11-12T15:50:49.176Z,11.73
2022-11-12T15:53:17.999Z,12.33
2022-11-12T15:55:47.257Z,11.50
2022-11-12T15:58:20.966Z,11.27
2022-11-12T16:00:49.386Z,11.97
2022-11-12T16:03:20.599Z,12.77
2022-11-12T16:05:50.315Z,9.53
2022-11-12T16:08:18.803Z,10.83
2022-11-12T16:10:48.575Z,9.20
2022-11-12T16:13:22.032Z,8.27
2022-11-12T16:15:52.112Z,8.40
2022-11-12T16:18:20.669Z,8.07
2022-11-12T16:20:50.911Z,7.83
2022-11-12T16:23:19.260Z,10.63
2022-11-12T16:25:47.863Z,7.90
2022-11-12T16:28:18.433Z,8.30
2022-11-12T16:30:48.628Z,7.30
2022-11-12T16:33:16.999Z,8.20
2022-11-12T16:35:45.328Z,8.70
2022-11-12T16:38:17.612Z,8.67
2022-11-12T16:40:46.726Z,9.50
2022-11-12T16:43:15.112Z,9.73
2022-11-12T16:45:45.058Z,9.73
2022-11-12T16:48:18.152Z,10.20
2022-11-12T16:50:46.757Z,10.03
2022-11-12T16:53:16.580Z,31.73
2022-11-12T16:55:45.227Z,16.03
2022-11-12T16:58:15.488Z,12.43
2022-11-12T17:00:47.649Z,12.53
2022-11-12T17:03:16.052Z,10.30
2022-11-12T17:05:44.425Z,14.50
2022-11-12T17:08:14.596Z,15.13
2022-11-12T17:10:44.381Z,13.73
2022-11-12T17:13:14.361Z,13.27
2022-11-12T17:15:42.709Z,13.67
2022-11-12T17:18:11.168Z,11.80
2022-11-12T17:20:39.495Z,11.37
2022-11-12T17:23:07.821Z,16.37
2022-11-12T17:25:36.200Z,13.47
2022-11-12T17:28:06.253Z,12.37
2022-11-12T17:30:34.565Z,12.77
2022-11-12T17:33:02.878Z,11.63
2022-11-12T17:35:32.866Z,17.80
2022-11-12T17:38:01.313Z,16.37
2022-11-12T17:40:29.665Z,13.87
2022-11-12T17:42:57.976Z,11.97
2022-11-12T17:45:27.702Z,13.83
2022-11-12T17:47:56.056Z,11.33
2022-11-12T17:50:24.493Z,9.30
2022-11-12T17:52:52.862Z,7.80
2022-11-12T17:55:21.118Z,9.87
2022-11-12T17:57:50.588Z,11.17
2022-11-12T18:00:20.021Z,10.80
2022-11-12T18:02:49.665Z,8.37
2022-11-12T18:05:18.089Z,8.60
2022-11-12T18:07:46.410Z,8.23
2022-11-12T18:10:19.356Z,8.83
2022-11-12T18:12:47.976Z,9.60
2022-11-12T18:15:17.130Z,11.63
2022-11-12T18:17:45.451Z,10.37
2022-11-12T18:20:15.200Z,9.90
2022-11-12T18:22:45.044Z,7.80
2022-11-12T18:25:14.189Z,8.27
2022-11-12T18:27:42.488Z,9.33
2022-11-12T18:30:16.372Z,8.50
2022-11-12T18:32:47.281Z,9.30
2022-11-12T18:35:17.173Z,9.23
2022-11-12T18:37:45.811Z,7.73
2022-11-12T18:40:14.450Z,9.40
2022-11-12T18:42:42.859Z,8.37
2022-11-12T18:45:11.832Z,7.90
2022-11-12T18:47:40.518Z,9.73
2022-11-12T18:50:09.368Z,8.17
2022-11-12T18:52:39.095Z,7.70
2022-11-12T18:55:08.961Z,7.50
2022-11-12T18:57:37.284Z,8.10
2022-11-12T19:00:06.696Z,7.43
2022-11-12T19:02:35.016Z,7.40
2022-11-12T19:05:03.304Z,9.30
2022-11-12T19:07:31.631Z,7.77
2022-11-12T19:10:14.763Z,7.90
2022-11-12T19:12:43.601Z,6.93
2022-11-12T19:15:12.690Z,7.63
2022-11-12T19:17:40.943Z,7.27
2022-11-12T19:20:11.254Z,8.17
2022-11-12T19:22:39.559Z,9.77
2022-11-12T19:25:10.463Z,8.53
2022-11-12T19:27:38.839Z,8.13
2022-11-12T19:30:08.960Z,9.33
2022-11-12T19:32:37.232Z,9.30
2022-11-12T19:35:06.309Z,9.57
2022-11-12T19:37:34.920Z,11.23
2022-11-12T19:40:03.189Z,11.07
2022-11-12T19:42:32.856Z,10.27
2022-11-12T19:45:02.798Z,10.20
2022-11-12T19:47:31.125Z,12.90
2022-11-12T19:49:59.389Z,11.37
2022-11-12T19:52:27.734Z,11.20
2022-11-12T19:54:56.185Z,12.03
2022-11-12T19:57:24.420Z,9.20
2022-11-12T19:59:54.125Z,11.03
2022-11-12T20:02:22.576Z,12.30
2022-11-12T20:04:50.891Z,13.00
2022-11-12T20:07:19.334Z,12.40
2022-11-12T20:09:47.694Z,17.63
2022-11-12T20:12:15.990Z,22.73
2022-11-12T20:14:44.367Z,18.77
2022-11-12T20:17:14.066Z,21.13
2022-11-12T20:19:42.406Z,14.30
2022-11-12T20:22:11.001Z,12.83
2022-11-12T20:24:39.411Z,12.30
2022-11-12T20:27:07.915Z,12.37
2022-11-12T20:29:36.206Z,10.10
2022-11-12T20:32:04.732Z,9.77
2022-11-12T20:34:34.485Z,9.20
2022-11-12T20:37:02.800Z,8.73
2022-11-12T20:39:32.563Z,7.10
2022-11-12T20:42:01.133Z,8.20
2022-11-12T20:44:29.496Z,6.93
2022-11-12T20:46:59.046Z,8.37
2022-11-12T20:49:27.356Z,7.17
2022-11-12T20:51:57.061Z,8.57
2022-11-12T20:54:25.348Z,6.87
2022-11-12T20:56:53.735Z,5.33
2022-11-12T20:59:22.100Z,6.93
2022-11-12T21:01:50.600Z,8.30
2022-11-12T21:04:18.903Z,7.10
2022-11-12T21:06:47.301Z,6.73
2022-11-12T21:09:18.704Z,9.47
2022-11-12T21:11:47.083Z,9.23
2022-11-12T21:14:15.689Z,9.43
2022-11-12T21:16:44.042Z,7.07
2022-11-12T21:19:12.370Z,7.40
2022-11-12T21:21:40.883Z,7.43
2022-11-12T21:24:09.801Z,7.43
2022-11-12T21:26:39.528Z,7.37
2022-11-12T21:29:08.162Z,8.77
2022-11-12T21:31:36.420Z,9.03
2022-11-12T21:34:06.972Z,7.80
2022-11-12T21:36:35.566Z,6.73
2022-11-12T21:39:04.785Z,6.77
2022-11-12T21:41:33.116Z,7.43
2022-11-12T21:44:02.876Z,10.30
2022-11-12T21:46:32.857Z,6.30
2022-11-12T21:49:01.233Z,7.80
2022-11-12T21:51:32.623Z,9.47
2022-11-12T21:54:03.420Z,7.93
2022-11-12T21:56:33.396Z,7.17
2022-11-12T21:59:04.474Z,7.60
2022-11-12T22:01:34.917Z,6.73
2022-11-12T22:04:08.114Z,9.83
2022-11-12T22:06:39.294Z,9.20
2022-11-12T22:09:07.859Z,9.37
2022-11-12T22:11:36.271Z,9.80
2022-11-12T22:14:06.125Z,10.00
2022-11-12T22:16:34.788Z,10.80
2022-11-12T22:19:03.237Z,8.03
2022-11-12T22:21:39.510Z,14.13
2022-11-12T22:24:09.735Z,10.20
2022-11-12T22:26:38.479Z,11.37
2022-11-12T22:29:08.252Z,7.47
2022-11-12T22:31:36.642Z,11.37
2022-11-12T22:34:05.127Z,9.13
2022-11-12T22:36:36.213Z,7.23
2022-11-12T22:39:06.975Z,10.93
2022-11-12T22:41:35.467Z,11.00
2022-11-12T22:44:04.481Z,8.70
2022-11-12T22:46:36.028Z,10.03
2022-11-12T22:49:06.173Z,10.07
2022-11-12T22:51:36.215Z,8.77
2022-11-12T22:54:06.698Z,11.07
2022-11-12T22:56:35.034Z,8.40
2022-11-12T22:59:04.897Z,7.60
2022-11-12T23:01:36.370Z,8.80
2022-11-12T23:04:07.312Z,8.57
2022-11-12T23:06:35.942Z,7.77
2022-11-12T23:09:06.615Z,8.43
2022-11-12T23:11:37.587Z,9.37
2022-11-12T23:14:05.970Z,7.90
2022-11-12T23:16:35.948Z,8.90
2022-11-12T23:19:04.816Z,7.80
2022-11-12T23:21:33.147Z,6.90
2022-11-12T23:24:01.481Z,7.47
2022-11-12T23:26:32.289Z,8.23
2022-11-12T23:29:01.020Z,6.97
2022-11-12T23:31:31.307Z,6.50
2022-11-12T23:34:01.615Z,5.30
2022-11-12T23:36:30.836Z,6.93
2022-11-12T23:38:59.735Z,5.67
2022-11-12T23:41:28.874Z,5.60
2022-11-12T23:43:58.574Z,5.73
2022-11-12T23:46:27.006Z,5.30
2022-11-12T23:48:55.653Z,6.70
2022-11-12T23:51:26.135Z,6.47
2022-11-12T23:53:54.483Z,7.57
2022-11-12T23:56:22.762Z,6.10
2022-11-12T23:58:54.555Z,6.60
